createdAt,value
2022-07-28T00:00:28.965Z,8.52
2022-07-28T00:02:59.126Z,12.35
2022-07-28T00:05:27.594Z,7.75
2022-07-28T00:07:56.445Z,6.78
2022-07-28T00:10:25.027Z,7.43
2022-07-28T00:12:53.400Z,9.13
2022-07-28T00:15:21.776Z,8.57
2022-07-28T00:17:50.177Z,7.88
2022-07-28T00:20:21.012Z,7.40
2022-07-28T00:22:49.346Z,7.80
2022-07-28T00:25:17.737Z,7.22
2022-07-28T00:27:46.135Z,9.98
2022-07-28T00:30:14.936Z,9.10
2022-07-28T00:32:43.651Z,12.30
2022-07-28T00:35:12.462Z,7.68
2022-07-28T00:37:44.949Z,7.32
2022-07-28T00:40:17.762Z,7.78
2022-07-28T00:42:46.263Z,7.40
2022-07-28T00:45:14.733Z,7.13
2022-07-28T00:47:43.092Z,7.80
2022-07-28T00:50:13.016Z,10.00
2022-07-28T00:52:41.673Z,8.23
2022-07-28T00:55:11.811Z,9.75
2022-07-28T00:57:41.775Z,7.53
2022-07-28T01:00:12.240Z,9.02
2022-07-28T01:05:09.682Z,10.50
2022-07-28T01:07:42.393Z,10.20
2022-07-28T01:10:17.432Z,10.48
2022-07-28T01:12:51.360Z,8.43
2022-07-28T01:15:24.708Z,9.30
2022-07-28T01:18:00.460Z,10.25
2022-07-28T01:20:33.139Z,10.07
2022-07-28T01:23:20.962Z,10.57
2022-07-28T01:26:03.625Z,9.82
2022-07-28T01:28:45.853Z,11.02
2022-07-28T01:31:20.613Z,10.25
2022-07-28T01:33:52.738Z,10.30
2022-07-28T01:36:24.767Z,10.50
2022-07-28T01:38:53.370Z,9.77
2022-07-28T01:41:24.127Z,10.10
2022-07-28T01:43:57.957Z,11.30
2022-07-28T01:46:28.560Z,11.07
2022-07-28T01:48:58.419Z,11.88
2022-07-28T01:51:29.687Z,10.52
2022-07-28T01:53:59.911Z,11.05
2022-07-28T01:56:30.647Z,12.85
2022-07-28T01:59:01.839Z,14.20
2022-07-28T02:01:33.601Z,12.85
2022-07-28T02:04:02.794Z,14.30
2022-07-28T02:06:31.860Z,11.80
2022-07-28T02:09:01.249Z,12.52
2022-07-28T02:11:43.162Z,12.00
2022-07-28T02:14:14.425Z,11.80
2022-07-28T02:16:47.169Z,15.15
2022-07-28T02:19:15.928Z,12.82
2022-07-28T02:21:47.679Z,14.45
2022-07-28T02:24:19.912Z,15.10
2022-07-28T02:26:52.326Z,15.48
2022-07-28T02:29:49.305Z,14.45
2022-07-28T02:32:28.161Z,14.60
2022-07-28T02:35:00.344Z,13.93
2022-07-28T02:37:35.028Z,14.30
2022-07-28T02:40:05.178Z,13.23
2022-07-28T02:42:35.169Z,20.13
2022-07-28T02:45:06.364Z,14.18
2022-07-28T02:47:40.175Z,13.57
2022-07-28T02:50:09.896Z,15.32
2022-07-28T02:52:38.534Z,15.95
2022-07-28T02:55:07.964Z,13.27
2022-07-28T02:57:36.760Z,14.82
2022-07-28T03:00:06.297Z,16.00
2022-07-28T03:02:36.793Z,13.88
2022-07-28T03:07:47.087Z,16.05
2022-07-28T03:10:33.590Z,16.17
2022-07-28T03:13:03.908Z,15.02
2022-07-28T03:15:33.046Z,16.35
2022-07-28T03:18:03.758Z,15.93
2022-07-28T03:20:32.460Z,15.73
2022-07-28T03:23:00.983Z,18.30
2022-07-28T03:25:34.193Z,15.38
2022-07-28T03:28:04.833Z,17.10
2022-07-28T03:30:36.508Z,17.50
2022-07-28T03:33:06.966Z,17.15
2022-07-28T03:35:37.154Z,17.95
2022-07-28T03:38:09.706Z,15.95
2022-07-28T03:40:39.065Z,15.93
2022-07-28T03:43:08.567Z,17.70
2022-07-28T03:45:40.774Z,19.98
2022-07-28T03:48:10.958Z,16.40
2022-07-28T03:50:39.343Z,15.13
2022-07-28T03:53:20.481Z,17.67
2022-07-28T03:55:51.015Z,16.77
2022-07-28T03:58:20.358Z,19.02
2022-07-28T04:00:49.456Z,18.05
2022-07-28T04:03:22.075Z,15.57
2022-07-28T04:06:05.387Z,19.13
2022-07-28T04:08:33.818Z,15.35
2022-07-28T04:11:02.253Z,14.52
2022-07-28T04:13:32.108Z,17.98
2022-07-28T04:16:00.916Z,14.75
2022-07-28T04:18:30.718Z,15.23
2022-07-28T04:20:59.088Z,15.55
2022-07-28T04:23:27.499Z,15.60
2022-07-28T04:25:55.917Z,17.40
2022-07-28T04:28:24.377Z,13.48
2022-07-28T04:30:52.853Z,15.38
2022-07-28T04:33:21.323Z,14.55
2022-07-28T04:35:52.698Z,15.00
2022-07-28T04:38:21.402Z,15.32
2022-07-28T04:40:50.377Z,13.95
2022-07-28T04:43:18.941Z,16.85
2022-07-28T04:45:53.994Z,17.13
2022-07-28T04:48:23.524Z,17.30
2022-07-28T04:50:53.692Z,16.42
2022-07-28T04:53:22.509Z,15.65
2022-07-28T04:55:53.446Z,16.98
2022-07-28T04:58:23.701Z,14.65
2022-07-28T05:00:52.880Z,15.05
2022-07-28T05:03:21.673Z,14.07
2022-07-28T05:05:54.630Z,13.27
2022-07-28T05:08:26.104Z,12.82
2022-07-28T05:10:56.648Z,12.98
2022-07-28T05:16:01.865Z,12.52
2022-07-28T05:18:30.322Z,11.95
2022-07-28T05:20:58.702Z,13.40
2022-07-28T05:23:28.517Z,13.05
2022-07-28T05:25:56.892Z,13.48
2022-07-28T05:28:25.232Z,13.88
2022-07-28T05:30:54.378Z,10.48
2022-07-28T05:33:22.841Z,11.43
2022-07-28T05:35:54.746Z,11.45
2022-07-28T05:38:23.190Z,12.45
2022-07-28T05:40:53.195Z,10.80
2022-07-28T05:43:22.012Z,9.50
2022-07-28T05:45:50.828Z,10.10
2022-07-28T05:48:20.148Z,9.85
2022-07-28T05:50:49.039Z,10.43
2022-07-28T05:53:17.742Z,9.27
2022-07-28T05:55:59.534Z,10.77
2022-07-28T05:58:31.860Z,10.77
2022-07-28T06:01:01.917Z,10.20
2022-07-28T06:06:14.674Z,12.27
2022-07-28T06:08:46.817Z,9.27
2022-07-28T06:11:22.162Z,10.80
2022-07-28T06:13:53.572Z,13.38
2022-07-28T06:16:23.268Z,10.45
2022-07-28T06:18:52.263Z,12.65
2022-07-28T06:21:21.118Z,11.30
2022-07-28T06:23:49.602Z,11.65
2022-07-28T06:26:18.120Z,10.98
2022-07-28T06:28:46.587Z,11.50
2022-07-28T06:31:16.605Z,9.15
2022-07-28T06:33:45.085Z,13.00
2022-07-28T06:36:13.654Z,10.73
2022-07-28T06:38:42.072Z,9.88
2022-07-28T06:41:10.528Z,10.15
2022-07-28T06:43:39.446Z,9.23
2022-07-28T06:46:08.471Z,10.38
2022-07-28T06:48:39.504Z,11.50
2022-07-28T06:51:08.128Z,11.00
2022-07-28T06:53:37.111Z,8.82
2022-07-28T06:56:06.580Z,10.57
2022-07-28T07:01:07.975Z,9.15
2022-07-28T07:03:38.214Z,10.55
2022-07-28T07:06:06.648Z,9.60
2022-07-28T07:08:35.665Z,8.40
2022-07-28T07:11:04.278Z,8.57
2022-07-28T07:13:33.369Z,9.70
2022-07-28T07:16:01.937Z,11.20
2022-07-28T07:18:30.444Z,8.38
2022-07-28T07:21:00.254Z,8.75
2022-07-28T07:23:28.817Z,11.13
2022-07-28T07:25:57.531Z,10.48
2022-07-28T07:28:26.119Z,7.13
2022-07-28T07:30:54.641Z,9.45
2022-07-28T07:33:24.533Z,8.13
2022-07-28T07:35:52.930Z,8.25
2022-07-28T07:38:27.454Z,7.47
2022-07-28T07:40:57.700Z,7.93
2022-07-28T07:43:26.142Z,9.20
2022-07-28T07:45:55.223Z,7.97
2022-07-28T07:48:23.654Z,7.25
2022-07-28T07:50:54.159Z,9.15
2022-07-28T07:53:24.456Z,10.13
2022-07-28T07:55:53.231Z,8.63
2022-07-28T07:58:21.676Z,7.32
2022-07-28T08:00:50.237Z,9.90
2022-07-28T08:03:22.679Z,9.38
2022-07-28T08:05:54.862Z,9.18
2022-07-28T08:08:25.227Z,8.60
2022-07-28T08:10:54.398Z,6.88
2022-07-28T08:13:23.299Z,6.82
2022-07-28T08:15:52.093Z,7.50
2022-07-28T08:18:20.598Z,8.07
2022-07-28T08:20:49.016Z,7.95
2022-07-28T08:23:19.565Z,6.57
2022-07-28T08:25:52.730Z,7.72
2022-07-28T08:28:23.273Z,8.88
2022-07-28T08:30:52.587Z,8.20
2022-07-28T08:33:21.871Z,6.43
2022-07-28T08:35:50.837Z,7.10
2022-07-28T08:38:19.992Z,6.32
2022-07-28T08:40:50.856Z,6.90
2022-07-28T08:43:29.724Z,7.07
2022-07-28T08:45:58.773Z,6.65
2022-07-28T08:48:29.722Z,6.72
2022-07-28T08:51:02.014Z,5.85
2022-07-28T08:53:30.847Z,7.10
2022-07-28T08:56:02.800Z,8.88
2022-07-28T08:58:34.256Z,7.45
2022-07-28T09:01:02.824Z,11.60
2022-07-28T09:03:31.331Z,7.05
2022-07-28T09:05:59.791Z,6.40
2022-07-28T09:08:28.171Z,5.22
2022-07-28T09:10:56.690Z,7.90
2022-07-28T09:13:25.089Z,7.68
2022-07-28T09:15:55.035Z,6.43
2022-07-28T09:18:23.470Z,7.03
2022-07-28T09:20:51.956Z,7.10
2022-07-28T09:23:43.244Z,4.97
2022-07-28T09:26:12.324Z,5.25
2022-07-28T09:28:52.116Z,5.47
2022-07-28T09:31:23.352Z,7.63
2022-07-28T09:34:00.840Z,5.82
2022-07-28T09:36:30.549Z,8.20
2022-07-28T09:38:59.273Z,7.45
2022-07-28T09:41:27.814Z,8.77
2022-07-28T09:43:56.385Z,5.40
2022-07-28T09:46:29.452Z,5.53
2022-07-28T09:48:59.939Z,6.63
2022-07-28T09:51:30.660Z,6.03
2022-07-28T09:54:10.222Z,6.18
2022-07-28T09:56:39.696Z,6.72
2022-07-28T09:59:09.186Z,7.45
2022-07-28T10:01:53.872Z,5.65
2022-07-28T10:04:32.905Z,7.65
2022-07-28T10:07:06.754Z,5.45
2022-07-28T10:09:35.545Z,4.90
2022-07-28T10:12:17.609Z,6.70
2022-07-28T10:14:47.402Z,5.53
2022-07-28T10:17:29.144Z,4.75
2022-07-28T10:19:58.740Z,6.18
2022-07-28T10:22:29.627Z,4.53
2022-07-28T10:24:59.718Z,5.40
2022-07-28T10:27:29.437Z,4.95
2022-07-28T10:29:59.995Z,5.80
2022-07-28T10:32:30.848Z,4.60
2022-07-28T10:35:03.798Z,4.43
2022-07-28T10:37:33.162Z,6.18
2022-07-28T10:40:10.048Z,5.20
2022-07-28T10:45:48.115Z,6.28
2022-07-28T10:48:16.917Z,5.07
2022-07-28T10:50:45.583Z,5.22
2022-07-28T10:53:22.105Z,5.28
2022-07-28T10:55:54.354Z,6.55
2022-07-28T10:58:27.776Z,5.90
2022-07-28T11:00:59.921Z,4.43
2022-07-28T11:03:40.800Z,6.72
2022-07-28T11:06:26.319Z,3.92
2022-07-28T11:08:55.988Z,5.30
2022-07-28T11:11:46.980Z,4.70
2022-07-28T11:14:37.671Z,4.88
2022-07-28T11:17:16.949Z,4.80
2022-07-28T11:22:46.777Z,5.97
2022-07-28T11:25:18.771Z,5.18
2022-07-28T11:28:06.149Z,5.43
2022-07-28T11:30:55.008Z,5.40
2022-07-28T11:33:25.095Z,5.45
2022-07-28T11:35:57.208Z,4.68
2022-07-28T11:38:25.810Z,4.40
2022-07-28T11:40:56.129Z,4.88
2022-07-28T11:43:36.302Z,5.95
2022-07-28T11:46:37.664Z,4.00
2022-07-28T11:49:30.917Z,5.95
2022-07-28T11:52:21.671Z,9.40
2022-07-28T11:54:55.729Z,6.30
2022-07-28T11:57:27.974Z,5.30
2022-07-28T12:00:01.997Z,5.22
2022-07-28T12:02:32.527Z,4.43
2022-07-28T12:05:09.749Z,3.65
2022-07-28T12:07:45.620Z,3.50
2022-07-28T12:13:28.584Z,5.63
2022-07-28T12:15:57.212Z,4.53
2022-07-28T12:18:25.800Z,6.70
2022-07-28T12:20:55.669Z,4.82
2022-07-28T12:23:44.103Z,5.95
2022-07-28T12:28:51.371Z,7.35
2022-07-28T12:31:19.846Z,5.07
2022-07-28T12:33:53.640Z,6.55
2022-07-28T12:36:24.246Z,6.47
2022-07-28T12:38:54.468Z,6.18
2022-07-28T12:41:23.909Z,5.82
2022-07-28T12:43:53.294Z,6.47
2022-07-28T12:46:23.688Z,6.30
2022-07-28T12:48:57.801Z,6.47
2022-07-28T12:51:33.969Z,5.53
2022-07-28T12:54:05.545Z,4.65
2022-07-28T12:56:45.344Z,6.28
2022-07-28T12:59:14.616Z,6.05
2022-07-28T13:01:50.076Z,4.18
2022-07-28T13:04:19.451Z,3.53
2022-07-28T13:06:57.482Z,5.63
2022-07-28T13:09:32.993Z,5.78
2022-07-28T13:12:04.119Z,7.18
2022-07-28T13:14:41.635Z,5.78
2022-07-28T13:17:11.255Z,6.15
2022-07-28T13:19:39.876Z,6.85
2022-07-28T13:22:09.222Z,3.85
2022-07-28T13:24:39.360Z,4.88
2022-07-28T13:27:08.931Z,4.32
2022-07-28T13:29:37.710Z,4.82
2022-07-28T13:32:06.713Z,5.13
2022-07-28T13:34:35.497Z,5.57
2022-07-28T13:37:04.600Z,4.10
2022-07-28T13:39:33.013Z,5.73
2022-07-28T13:42:05.683Z,4.45
2022-07-28T13:44:35.221Z,7.15
2022-07-28T13:47:05.996Z,5.72
2022-07-28T13:49:37.469Z,3.70
2022-07-28T13:52:07.105Z,4.10
2022-07-28T13:54:41.789Z,5.82
2022-07-28T13:57:12.362Z,3.10
2022-07-28T13:59:42.248Z,4.97
2022-07-28T14:02:15.197Z,4.68
2022-07-28T14:04:50.168Z,5.30
2022-07-28T14:07:21.096Z,4.60
2022-07-28T14:09:51.287Z,4.85
2022-07-28T14:12:21.071Z,8.75
2022-07-28T14:14:49.484Z,5.13
2022-07-28T14:20:12.174Z,4.88
2022-07-28T14:22:40.602Z,4.07
2022-07-28T14:25:09.675Z,4.22
2022-07-28T14:27:41.255Z,4.80
2022-07-28T14:30:11.001Z,3.13
2022-07-28T14:32:40.478Z,6.38
2022-07-28T14:35:09.370Z,9.93
2022-07-28T14:38:11.176Z,6.63
2022-07-28T14:40:26.584Z,6.78
2022-07-28T14:42:56.354Z,5.75
2022-07-28T14:45:24.873Z,4.35
2022-07-28T14:47:55.200Z,3.22
2022-07-28T14:50:23.750Z,6.43
2022-07-28T14:52:52.577Z,5.68
2022-07-28T14:55:21.295Z,4.65
2022-07-28T14:57:54.661Z,4.03
2022-07-28T15:00:28.220Z,4.75
2022-07-28T15:02:56.768Z,3.45
2022-07-28T15:05:25.514Z,4.82
2022-07-28T15:07:53.878Z,3.78
2022-07-28T15:10:22.309Z,3.50
2022-07-28T15:12:52.018Z,3.78
2022-07-28T15:15:26.440Z,6.95
2022-07-28T15:17:57.496Z,4.97
2022-07-28T15:20:26.096Z,5.70
2022-07-28T15:22:54.506Z,4.13
2022-07-28T15:25:23.026Z,7.60
2022-07-28T15:27:51.418Z,5.28
2022-07-28T15:30:19.943Z,3.72
2022-07-28T15:32:56.961Z,4.15
2022-07-28T15:35:27.598Z,3.40
2022-07-28T15:37:56.142Z,4.00
2022-07-28T15:40:25.298Z,7.05
2022-07-28T15:42:54.050Z,5.03
2022-07-28T15:45:25.919Z,4.75
2022-07-28T15:47:55.714Z,4.97
2022-07-28T15:50:24.537Z,3.78
2022-07-28T15:52:54.308Z,3.88
2022-07-28T15:55:22.678Z,5.95
2022-07-28T15:57:51.659Z,4.38
2022-07-28T16:00:20.674Z,3.03
2022-07-28T16:02:50.439Z,3.83
2022-07-28T16:05:18.957Z,4.25
2022-07-28T16:07:47.353Z,3.20
2022-07-28T16:10:17.270Z,3.17
2022-07-28T16:15:32.221Z,4.72
2022-07-28T16:18:00.597Z,4.47
2022-07-28T16:20:30.117Z,4.95
2022-07-28T16:22:58.785Z,3.17
2022-07-28T16:25:29.050Z,5.63
2022-07-28T16:27:57.947Z,3.83
2022-07-28T16:30:26.371Z,3.97
2022-07-28T16:32:54.893Z,5.38
2022-07-28T16:35:23.508Z,4.78
2022-07-28T16:37:52.161Z,4.68
2022-07-28T16:40:20.662Z,6.72
2022-07-28T16:42:52.202Z,4.07
2022-07-28T16:45:20.700Z,8.00
2022-07-28T16:47:49.060Z,4.45
2022-07-28T16:50:18.957Z,3.95
2022-07-28T16:52:47.484Z,5.07
2022-07-28T16:55:20.067Z,3.30
2022-07-28T16:57:53.630Z,3.35
2022-07-28T17:00:25.635Z,4.75
2022-07-28T17:02:54.626Z,4.30
2022-07-28T17:05:23.614Z,4.90
2022-07-28T17:07:54.088Z,3.22
2022-07-28T17:10:27.206Z,5.88
2022-07-28T17:12:58.661Z,5.50
2022-07-28T17:15:27.227Z,6.72
2022-07-28T17:17:56.641Z,7.28
2022-07-28T17:20:25.524Z,5.63
2022-07-28T17:22:53.981Z,5.27
2022-07-28T17:25:47.239Z,4.13
2022-07-28T17:28:12.492Z,5.82
2022-07-28T17:33:10.077Z,4.95
2022-07-28T17:35:39.203Z,4.32
2022-07-28T17:38:09.633Z,7.13
2022-07-28T17:40:39.595Z,5.40
2022-07-28T17:43:08.794Z,11.63
2022-07-28T17:45:38.860Z,7.57
2022-07-28T17:48:07.710Z,11.18
2022-07-28T17:50:36.197Z,5.50
2022-07-28T17:53:04.710Z,6.95
2022-07-28T17:55:57.533Z,11.13
2022-07-28T17:58:29.158Z,5.28
2022-07-28T18:01:11.054Z,6.13
2022-07-28T18:03:56.776Z,7.60
2022-07-28T18:06:30.628Z,4.65
2022-07-28T18:09:05.759Z,9.75
2022-07-28T18:11:57.932Z,12.55
2022-07-28T18:14:28.310Z,9.88
2022-07-28T18:16:58.348Z,7.28
2022-07-28T18:21:55.902Z,4.68
2022-07-28T18:24:24.580Z,4.60
2022-07-28T18:26:53.630Z,6.05
2022-07-28T18:29:22.712Z,7.00
2022-07-28T18:31:52.055Z,6.05
2022-07-28T18:34:23.510Z,5.47
2022-07-28T18:36:54.328Z,5.97
2022-07-28T18:39:22.901Z,5.53
2022-07-28T18:41:51.497Z,5.03
2022-07-28T18:44:20.628Z,8.55
2022-07-28T18:46:49.473Z,4.47
2022-07-28T18:49:18.183Z,3.47
2022-07-28T18:51:49.387Z,5.47
2022-07-28T18:54:27.021Z,6.22
2022-07-28T18:56:56.303Z,6.45
2022-07-28T18:59:24.755Z,5.25
2022-07-28T19:01:53.547Z,6.55
2022-07-28T19:04:22.122Z,5.47
2022-07-28T19:06:52.309Z,5.38
2022-07-28T19:11:48.904Z,9.05
2022-07-28T19:14:18.226Z,6.97
2022-07-28T19:16:47.016Z,10.60
2022-07-28T19:19:15.815Z,6.82
2022-07-28T19:21:44.298Z,9.30
2022-07-28T19:24:15.281Z,14.00
2022-07-28T19:26:45.412Z,4.72
2022-07-28T19:29:13.946Z,16.00
2022-07-28T19:31:42.468Z,9.32
2022-07-28T19:34:11.513Z,11.82
2022-07-28T19:36:41.706Z,8.68
2022-07-28T19:41:40.391Z,6.95
2022-07-28T19:44:08.758Z,7.22
2022-07-28T19:46:37.966Z,7.53
2022-07-28T19:49:08.082Z,5.72
2022-07-28T19:51:36.763Z,6.95
2022-07-28T19:54:05.475Z,6.25
2022-07-28T19:56:33.880Z,7.00
2022-07-28T19:59:04.147Z,9.30
2022-07-28T20:01:32.548Z,12.18
2022-07-28T20:04:05.340Z,9.00
2022-07-28T20:06:34.548Z,12.75
2022-07-28T20:09:03.723Z,8.18
2022-07-28T20:11:33.001Z,8.07
2022-07-28T20:14:03.480Z,6.00
2022-07-28T20:19:00.082Z,9.35
2022-07-28T20:21:28.488Z,11.65
2022-07-28T20:23:58.786Z,7.30
2022-07-28T20:26:28.294Z,6.78
2022-07-28T20:28:58.385Z,8.20
2022-07-28T20:31:28.409Z,9.80
2022-07-28T20:33:56.934Z,8.27
2022-07-28T20:36:29.714Z,8.18
2022-07-28T20:38:58.500Z,5.68
2022-07-28T20:41:27.085Z,9.60
2022-07-28T20:44:26.238Z,10.20
2022-07-28T20:46:45.260Z,5.82
2022-07-28T20:49:13.662Z,6.13
2022-07-28T20:51:50.604Z,7.53
2022-07-28T20:54:19.560Z,6.43
2022-07-28T20:56:48.049Z,7.00
2022-07-28T20:59:16.580Z,6.65
2022-07-28T21:01:46.508Z,5.35
2022-07-28T21:04:15.353Z,7.80
2022-07-28T21:06:51.695Z,11.70
2022-07-28T21:09:21.373Z,6.65
2022-07-28T21:11:49.755Z,9.25
2022-07-28T21:14:18.704Z,7.63
2022-07-28T21:16:48.910Z,7.70
2022-07-28T21:19:17.300Z,6.82
2022-07-28T21:21:45.649Z,9.90
2022-07-28T21:24:14.277Z,11.82
2022-07-28T21:26:43.061Z,12.00
2022-07-28T21:32:04.679Z,12.40
2022-07-28T21:34:35.896Z,11.57
2022-07-28T21:37:04.885Z,9.70
2022-07-28T21:39:33.780Z,14.13
2022-07-28T21:42:04.698Z,8.82
2022-07-28T21:44:36.133Z,9.07
2022-07-28T21:47:04.724Z,10.43
2022-07-28T21:49:33.287Z,8.75
2022-07-28T21:52:03.115Z,12.63
2022-07-28T21:54:31.537Z,12.25
2022-07-28T21:56:59.920Z,14.38
2022-07-28T21:59:28.337Z,10.48
2022-07-28T22:01:56.964Z,7.93
2022-07-28T22:04:25.838Z,9.55
2022-07-28T22:06:54.589Z,7.30
2022-07-28T22:09:24.523Z,7.93
2022-07-28T22:11:52.997Z,5.43
2022-07-28T22:14:21.494Z,4.10
2022-07-28T22:16:50.596Z,4.97
2022-07-28T22:19:19.079Z,4.68
2022-07-28T22:21:47.829Z,3.55
2022-07-28T22:24:17.187Z,3.78
2022-07-28T22:26:47.180Z,3.88
2022-07-28T22:29:15.637Z,2.83
2022-07-28T22:31:44.498Z,3.15
2022-07-28T22:34:13.362Z,3.88
2022-07-28T22:36:42.007Z,2.38
2022-07-28T22:39:10.538Z,4.25
2022-07-28T22:41:38.926Z,3.13
2022-07-28T22:44:10.259Z,3.85
2022-07-28T22:46:38.780Z,4.15
2022-07-28T22:49:07.283Z,3.30
2022-07-28T22:51:35.884Z,2.53
2022-07-28T22:54:04.450Z,3.40
2022-07-28T22:56:35.085Z,4.05
2022-07-28T22:59:06.555Z,3.03
2022-07-28T23:01:36.588Z,3.30
2022-07-28T23:06:35.966Z,3.03
2022-07-28T23:09:04.596Z,3.42
2022-07-28T23:11:32.973Z,5.93
2022-07-28T23:14:01.416Z,2.50
2022-07-28T23:16:30.096Z,4.10
2022-07-28T23:19:00.465Z,3.90
2022-07-28T23:23:57.122Z,2.90
2022-07-28T23:26:25.605Z,5.20
2022-07-28T23:28:54.251Z,3.17
2022-07-28T23:31:22.785Z,6.32
2022-07-28T23:33:55.195Z,2.67
2022-07-28T23:36:27.993Z,2.20
2022-07-28T23:38:58.305Z,3.08
2022-07-28T23:41:27.682Z,2.50
2022-07-28T23:43:56.190Z,2.53
2022-07-28T23:46:25.048Z,2.15
2022-07-28T23:48:53.593Z,2.50
2022-07-28T23:51:31.925Z,2.00
2022-07-28T23:54:14.663Z,3.28
2022-07-28T23:56:43.715Z,2.28
2022-07-28T23:59:14.464Z,3.90
